Time;durP1;ratioP1;P1;durP2;ratioP2;P2;SDS_P1;SDS_P2;PMS_P1;PMS_P2;Temp;Humidity;BMP_temperature;BMP_pressure;BME280_temperature;BME280_humidity;BME280_pressure;Samples;Min_cycle;Max_cycle;Signal;HPM_P1;HPM_P2
2023/08/12 00:00:43;;;;;;;6.10;3.60;;;19.70;99.20;;;;;;5096942;28;20998;-74
2023/08/12 00:03:09;;;;;;;4.77;3.50;;;19.70;99.30;;;;;;5096969;28;20625;-75
2023/08/12 00:05:39;;;;;;;5.20;4.70;;;19.60;99.90;;;;;;5089812;28;20651;-74
2023/08/12 00:08:07;;;;;;;4.40;4.03;;;19.50;99.90;;;;;;5087771;28;21258;-74
2023/08/12 00:10:35;;;;;;;4.10;3.80;;;19.50;99.90;;;;;;5096005;28;20676;-74
2023/08/12 00:13:01;;;;;;;4.83;4.30;;;19.60;99.80;;;;;;5088641;28;20625;-74
2023/08/12 00:15:30;;;;;;;3.97;3.67;;;19.60;99.70;;;;;;5092394;28;20644;-74
2023/08/12 00:17:56;;;;;;;5.00;3.70;;;19.60;99.40;;;;;;5096506;28;20735;-74
2023/08/12 00:20:24;;;;;;;4.80;4.03;;;19.60;99.40;;;;;;5087211;28;20621;-74
2023/08/12 00:22:51;;;;;;;5.27;3.60;;;19.60;99.70;;;;;;5088743;28;20694;-75
2023/08/12 00:25:17;;;;;;;6.87;3.90;;;19.50;99.90;;;;;;5092149;28;20649;-74
2023/08/12 00:27:44;;;;;;;10.33;5.20;;;19.40;99.90;;;;;;5099070;28;20626;-74
2023/08/12 00:30:12;;;;;;;4.37;3.97;;;19.50;99.90;;;;;;5097156;28;20627;-74
2023/08/12 00:32:40;;;;;;;4.93;4.47;;;19.50;99.90;;;;;;5087911;28;20643;-75
2023/08/12 00:35:08;;;;;;;5.40;4.90;;;19.60;99.90;;;;;;5087698;28;20632;-74
2023/08/12 00:37:34;;;;;;;4.97;4.47;;;19.50;99.90;;;;;;5092548;28;20856;-74
2023/08/12 00:40:02;;;;;;;5.10;4.47;;;19.30;99.90;;;;;;5093764;28;20629;-75
2023/08/12 00:42:28;;;;;;;4.97;4.47;;;19.20;99.90;;;;;;5099578;28;20660;-74
2023/08/12 00:44:55;;;;;;;7.03;4.63;;;19.20;99.90;;;;;;5093844;28;20656;-75
2023/08/12 00:47:22;;;;;;;5.27;4.70;;;19.10;99.90;;;;;;5097578;28;20994;-75
2023/08/12 00:49:51;;;;;;;5.70;4.23;;;19.20;99.90;;;;;;5091012;28;21180;-74
2023/08/12 00:52:19;;;;;;;5.90;4.53;;;19.20;99.90;;;;;;5099487;28;21290;-74
2023/08/12 00:54:46;;;;;;;4.87;4.20;;;19.10;99.90;;;;;;5096925;28;20707;-74
2023/08/12 00:57:13;;;;;;;4.87;4.47;;;19.10;99.90;;;;;;5102068;28;20643;-74
2023/08/12 00:59:42;;;;;;;5.30;4.80;;;19.00;99.90;;;;;;5091473;28;20625;-74
2023/08/12 01:02:09;;;;;;;5.03;4.53;;;19.10;99.90;;;;;;5097581;28;20636;-74
2023/08/12 01:04:36;;;;;;;5.00;4.60;;;19.20;99.90;;;;;;5100818;28;20761;-75
2023/08/12 01:07:04;;;;;;;5.93;5.00;;;19.20;99.90;;;;;;5101200;28;20733;-74
2023/08/12 01:09:31;;;;;;;5.60;4.77;;;19.20;99.90;;;;;;5094191;28;20622;-74
2023/08/12 01:12:05;;;;;;;5.77;4.67;;;19.20;99.90;;;;;;5095159;28;21239;-75
2023/08/12 01:14:40;;;;;;;5.43;4.70;;;19.20;99.90;;;;;;5095273;28;21234;-74
2023/08/12 01:17:10;;;;;;;5.57;5.00;;;19.20;99.90;;;;;;5091653;28;20642;-74
2023/08/12 01:19:39;;;;;;;5.20;4.70;;;19.20;99.90;;;;;;5099669;28;20631;-74
2023/08/12 01:22:10;;;;;;;5.53;4.93;;;19.20;99.90;;;;;;5092894;28;20649;-74
2023/08/12 01:24:40;;;;;;;5.33;4.50;;;19.10;99.90;;;;;;5094535;28;20847;-74
2023/08/12 01:27:10;;;;;;;5.23;4.73;;;19.10;99.90;;;;;;5098365;28;21236;-75
2023/08/12 01:29:41;;;;;;;4.40;4.00;;;19.10;99.90;;;;;;5096947;28;20624;-75
2023/08/12 01:32:18;;;;;;;6.53;4.97;;;19.10;99.90;;;;;;5097127;28;20654;-75
2023/08/12 01:34:51;;;;;;;4.17;3.80;;;19.20;99.90;;;;;;5101662;28;20612;-74
2023/08/12 01:37:29;;;;;;;4.60;4.13;;;19.10;99.90;;;;;;5091970;28;20735;-75
2023/08/12 01:40:02;;;;;;;6.70;4.80;;;19.10;99.90;;;;;;5098060;28;20615;-74
2023/08/12 01:42:31;;;;;;;4.80;3.90;;;19.10;99.90;;;;;;5094080;28;20682;-75
2023/08/12 01:45:00;;;;;;;6.07;5.53;;;19.10;99.90;;;;;;5091264;28;20702;-74
2023/08/12 01:47:28;;;;;;;4.80;4.40;;;19.10;99.90;;;;;;5092810;28;20636;-74
2023/08/12 01:49:57;;;;;;;5.57;5.07;;;19.10;99.90;;;;;;5090259;28;20639;-74
2023/08/12 01:52:25;;;;;;;5.00;4.60;;;19.10;99.90;;;;;;5090890;28;20652;-74
2023/08/12 01:54:53;;;;;;;4.63;4.23;;;19.10;99.90;;;;;;5091077;28;20651;-74
2023/08/12 01:57:22;;;;;;;4.17;3.77;;;19.10;99.90;;;;;;5091729;28;20642;-74
2023/08/12 01:59:52;;;;;;;5.60;4.60;;;19.10;99.90;;;;;;5102206;28;20628;-75
2023/08/12 02:02:21;;;;;;;5.67;5.20;;;19.10;99.90;;;;;;5091449;28;21235;-74
2023/08/12 02:04:49;;;;;;;5.00;4.50;;;19.10;99.90;;;;;;5091556;28;20641;-75
2023/08/12 02:07:15;;;;;;;4.50;4.10;;;19.20;99.90;;;;;;5096855;28;20977;-74
2023/08/12 02:09:42;;;;;;;6.10;4.43;;;19.20;99.90;;;;;;5099248;28;20633;-74
2023/08/12 02:12:09;;;;;;;5.30;4.80;;;19.30;99.90;;;;;;5098562;28;20671;-75
2023/08/12 02:14:37;;;;;;;5.43;4.00;;;19.30;99.90;;;;;;5090448;28;20617;-75
2023/08/12 02:17:05;;;;;;;7.13;4.80;;;19.40;99.90;;;;;;5092750;28;20641;-74
2023/08/12 02:19:33;;;;;;;4.90;4.47;;;19.40;99.90;;;;;;5102695;28;20624;-74
2023/08/12 02:22:03;;;;;;;4.27;3.97;;;19.40;99.90;;;;;;5092633;28;20717;-75
2023/08/12 02:24:30;;;;;;;6.60;5.90;;;19.40;99.90;;;;;;5090516;28;20648;-75
2023/08/12 02:26:59;;;;;;;6.17;4.60;;;19.50;99.90;;;;;;5091155;28;20648;-75
2023/08/12 02:29:27;;;;;;;4.97;4.50;;;19.40;99.90;;;;;;5094131;28;20624;-74
2023/08/12 02:31:56;;;;;;;4.20;3.80;;;19.40;99.90;;;;;;5093985;28;20644;-74
2023/08/12 02:34:24;;;;;;;5.10;4.60;;;19.50;99.90;;;;;;5101554;28;20625;-74
2023/08/12 02:36:50;;;;;;;4.70;4.30;;;19.50;99.90;;;;;;5101135;28;20633;-74
2023/08/12 02:39:17;;;;;;;6.13;5.53;;;19.50;99.90;;;;;;5091103;28;21197;-74
2023/08/12 02:41:44;;;;;;;4.93;4.47;;;19.50;99.90;;;;;;5097293;28;20636;-75
2023/08/12 02:44:12;;;;;;;4.43;4.00;;;19.50;99.90;;;;;;5091745;28;21047;-75
2023/08/12 02:46:39;;;;;;;4.93;4.50;;;19.60;99.90;;;;;;5095646;28;20770;-75
2023/08/12 02:49:08;;;;;;;4.53;4.10;;;19.60;99.90;;;;;;5095820;28;20625;-74
2023/08/12 02:51:37;;;;;;;5.00;4.50;;;19.70;99.90;;;;;;5090539;28;20668;-74
2023/08/12 02:54:06;;;;;;;4.87;4.47;;;19.60;99.90;;;;;;5084601;28;20977;-74
2023/08/12 02:56:33;;;;;;;4.70;4.20;;;19.70;99.90;;;;;;5087544;28;20674;-74
2023/08/12 02:59:02;;;;;;;6.07;4.70;;;19.60;99.90;;;;;;5089494;28;20634;-74
2023/08/12 03:01:30;;;;;;;5.13;4.70;;;19.60;99.90;;;;;;5098934;28;20640;-74
2023/08/12 03:03:58;;;;;;;4.90;4.37;;;19.60;99.90;;;;;;5089734;28;20747;-74
2023/08/12 03:06:26;;;;;;;4.50;4.10;;;19.60;99.90;;;;;;5089481;28;21014;-74
2023/08/12 03:08:55;;;;;;;4.83;3.77;;;19.60;99.90;;;;;;5097438;28;21210;-74
2023/08/12 03:11:24;;;;;;;3.90;3.60;;;19.60;99.90;;;;;;5097985;28;20739;-74
2023/08/12 03:13:51;;;;;;;4.97;4.47;;;19.60;99.90;;;;;;5098340;28;20718;-75
2023/08/12 03:16:17;;;;;;;4.73;3.97;;;19.60;99.90;;;;;;5090195;28;20960;-74
2023/08/12 03:18:44;;;;;;;5.43;4.97;;;19.50;99.90;;;;;;5097142;28;20724;-75
2023/08/12 03:21:11;;;;;;;5.40;4.90;;;19.60;99.90;;;;;;5097249;28;20647;-75
2023/08/12 03:23:39;;;;;;;4.87;4.30;;;19.60;99.90;;;;;;5104142;28;20620;-76
2023/08/12 03:26:06;;;;;;;5.90;5.40;;;19.70;99.90;;;;;;5091474;28;20683;-75
2023/08/12 03:28:33;;;;;;;5.73;4.30;;;19.70;99.90;;;;;;5098372;28;20648;-74
2023/08/12 03:30:59;;;;;;;4.53;4.13;;;19.70;99.90;;;;;;5089362;28;20653;-74
2023/08/12 03:33:26;;;;;;;5.00;4.60;;;19.70;99.90;;;;;;5097409;28;20630;-74
2023/08/12 03:35:53;;;;;;;4.57;4.27;;;19.70;99.90;;;;;;5088906;28;20756;-74
2023/08/12 03:38:20;;;;;;;4.20;3.80;;;19.80;99.90;;;;;;5088377;28;20677;-75
2023/08/12 03:40:48;;;;;;;5.30;4.80;;;19.90;99.90;;;;;;5088526;28;20657;-74
2023/08/12 03:43:15;;;;;;;7.10;4.00;;;19.90;99.90;;;;;;5090360;28;20649;-74
2023/08/12 03:45:42;;;;;;;5.10;4.50;;;19.90;99.90;;;;;;5096697;28;21023;-74
2023/08/12 03:48:09;;;;;;;5.03;4.60;;;19.80;99.90;;;;;;5088095;28;20621;-75
2023/08/12 03:50:36;;;;;;;4.00;3.60;;;19.90;99.90;;;;;;5088858;28;20661;-74
2023/08/12 03:53:03;;;;;;;12.40;4.40;;;19.80;99.90;;;;;;5097113;28;20619;-74
2023/08/12 03:55:31;;;;;;;5.90;4.77;;;19.90;99.90;;;;;;5097284;28;20642;-74
2023/08/12 03:58:00;;;;;;;5.43;4.53;;;19.80;99.90;;;;;;5092866;28;20616;-75
2023/08/12 04:00:27;;;;;;;5.37;4.87;;;19.80;99.90;;;;;;5099721;28;20749;-74
2023/08/12 04:02:54;;;;;;;5.10;4.60;;;19.70;99.90;;;;;;5093494;28;20623;-74
2023/08/12 04:05:21;;;;;;;5.23;4.73;;;19.80;99.90;;;;;;5095280;28;20642;-74
2023/08/12 04:07:48;;;;;;;4.77;4.37;;;19.80;99.90;;;;;;5089209;28;20718;-75
2023/08/12 04:10:15;;;;;;;4.53;4.13;;;19.80;99.90;;;;;;5092566;28;20635;-75
2023/08/12 04:12:42;;;;;;;4.60;4.20;;;19.70;99.90;;;;;;5091917;28;20620;-75
2023/08/12 04:15:11;;;;;;;5.37;4.87;;;19.80;99.90;;;;;;5101337;28;20635;-74
2023/08/12 04:17:39;;;;;;;4.93;4.30;;;19.80;99.90;;;;;;5090134;28;20621;-74
2023/08/12 04:20:07;;;;;;;5.37;4.87;;;19.90;99.90;;;;;;5087691;28;20621;-75
2023/08/12 04:22:34;;;;;;;5.43;4.93;;;19.80;99.90;;;;;;5095575;28;21076;-74
2023/08/12 04:25:01;;;;;;;5.17;4.70;;;19.70;99.90;;;;;;5088494;28;20652;-74
2023/08/12 04:27:28;;;;;;;4.93;4.30;;;19.60;99.90;;;;;;5092118;28;20645;-75
2023/08/12 04:29:55;;;;;;;5.87;4.80;;;19.60;99.90;;;;;;5093855;28;20624;-74
2023/08/12 04:32:23;;;;;;;5.47;4.10;;;19.60;99.90;;;;;;5093822;28;20645;-74
2023/08/12 04:34:50;;;;;;;5.23;4.53;;;19.60;99.90;;;;;;5093089;28;20623;-74
2023/08/12 04:37:17;;;;;;;5.07;4.67;;;19.50;99.90;;;;;;5098433;28;20750;-74
2023/08/12 04:39:43;;;;;;;5.00;4.20;;;19.50;99.90;;;;;;5095236;28;20720;-73
2023/08/12 04:42:10;;;;;;;4.30;3.80;;;19.60;99.90;;;;;;5091429;28;21003;-74
2023/08/12 04:44:37;;;;;;;5.37;4.17;;;19.60;99.90;;;;;;5079924;28;20710;-74
2023/08/12 04:47:04;;;;;;;4.53;4.17;;;19.50;99.90;;;;;;5088080;28;20874;-74
2023/08/12 04:49:32;;;;;;;4.50;4.10;;;19.60;99.90;;;;;;5096192;28;20661;-74
2023/08/12 04:51:59;;;;;;;4.77;4.30;;;19.70;99.90;;;;;;5088066;28;20743;-74
2023/08/12 04:54:26;;;;;;;5.03;4.60;;;19.80;99.90;;;;;;5089492;28;20862;-74
2023/08/12 04:56:52;;;;;;;4.27;3.87;;;19.80;99.90;;;;;;5097968;28;20738;-74
2023/08/12 04:59:19;;;;;;;4.60;4.20;;;19.60;99.90;;;;;;5087945;28;20633;-75
2023/08/12 05:01:46;;;;;;;5.60;5.03;;;19.50;99.90;;;;;;5093465;28;20756;-74
2023/08/12 05:04:13;;;;;;;6.80;6.20;;;19.40;99.90;;;;;;5100321;28;20627;-74
2023/08/12 05:06:41;;;;;;;8.80;6.10;;;19.40;99.90;;;;;;5088399;28;20679;-74
2023/08/12 05:09:08;;;;;;;5.37;4.90;;;19.40;99.90;;;;;;5098456;28;20650;-74
2023/08/12 05:11:34;;;;;;;5.90;5.40;;;19.40;99.90;;;;;;5086229;28;20676;-74
2023/08/12 05:14:01;;;;;;;6.47;5.80;;;19.40;99.90;;;;;;5096214;28;20630;-74
2023/08/12 05:16:28;;;;;;;6.70;5.40;;;19.40;99.90;;;;;;5096232;28;20645;-74
2023/08/12 05:18:55;;;;;;;6.67;5.63;;;19.50;99.90;;;;;;5087645;28;20625;-74
2023/08/12 05:21:22;;;;;;;5.67;4.77;;;19.50;99.90;;;;;;5097178;28;20649;-74
2023/08/12 05:23:50;;;;;;;6.90;5.93;;;19.60;99.90;;;;;;5098366;28;20624;-74
2023/08/12 05:26:17;;;;;;;5.97;5.47;;;19.70;99.90;;;;;;5096354;28;20672;-74
2023/08/12 05:28:44;;;;;;;5.10;4.60;;;19.80;99.90;;;;;;5087624;28;20616;-75
2023/08/12 05:31:10;;;;;;;4.80;4.40;;;19.90;99.90;;;;;;5095074;28;20662;-74
2023/08/12 05:33:37;;;;;;;4.77;4.37;;;19.90;99.90;;;;;;5096393;28;20719;-74
2023/08/12 05:36:04;;;;;;;5.80;5.10;;;19.80;99.90;;;;;;5087214;28;21305;-74
2023/08/12 05:38:31;;;;;;;5.70;4.70;;;19.80;99.90;;;;;;5091772;28;20617;-74
2023/08/12 05:40:59;;;;;;;5.93;4.73;;;19.90;99.90;;;;;;5091050;28;20759;-74
2023/08/12 05:43:26;;;;;;;6.47;5.87;;;19.80;99.90;;;;;;5091884;28;20631;-74
2023/08/12 05:45:53;;;;;;;5.50;5.00;;;19.90;99.90;;;;;;5090185;28;20663;-76
2023/08/12 05:48:20;;;;;;;5.60;5.10;;;20.10;99.90;;;;;;5092431;28;21157;-75
2023/08/12 05:50:46;;;;;;;8.27;4.93;;;20.10;99.90;;;;;;5091318;28;21200;-75
2023/08/12 05:53:13;;;;;;;5.00;4.47;;;20.20;99.90;;;;;;5089756;28;21162;-77
2023/08/12 05:55:40;;;;;;;5.43;4.93;;;20.20;99.90;;;;;;5090755;28;20682;-74
2023/08/12 05:58:08;;;;;;;5.10;4.60;;;20.30;99.90;;;;;;5090491;28;20625;-73
2023/08/12 06:00:35;;;;;;;5.40;4.90;;;20.20;99.90;;;;;;5089883;28;21255;-74
2023/08/12 06:03:02;;;;;;;4.50;4.20;;;20.20;99.90;;;;;;5089318;28;20623;-73
2023/08/12 06:05:29;;;;;;;5.60;5.07;;;20.30;99.90;;;;;;5092402;28;20676;-74
2023/08/12 06:07:55;;;;;;;5.57;4.77;;;20.30;99.90;;;;;;5095240;28;20731;-74
2023/08/12 06:10:22;;;;;;;4.83;4.37;;;20.40;99.90;;;;;;5091156;28;20631;-75
2023/08/12 06:12:49;;;;;;;6.57;4.67;;;20.40;99.90;;;;;;5090065;28;20622;-77
2023/08/12 06:15:17;;;;;;;4.83;4.43;;;20.40;99.90;;;;;;5090314;28;20624;-77
2023/08/12 06:17:44;;;;;;;4.60;4.23;;;20.40;99.90;;;;;;5088825;28;20729;-76
2023/08/12 06:20:12;;;;;;;7.00;5.27;;;20.30;99.90;;;;;;5091189;28;21014;-76
2023/08/12 06:22:39;;;;;;;4.90;4.40;;;20.30;99.90;;;;;;5095380;28;20621;-77
2023/08/12 06:25:06;;;;;;;4.70;4.37;;;20.20;99.90;;;;;;5092758;28;20619;-76
2023/08/12 06:27:33;;;;;;;5.50;5.00;;;20.30;99.90;;;;;;5093246;28;20718;-75
2023/08/12 06:30:00;;;;;;;5.03;4.60;;;20.40;99.90;;;;;;5090268;28;20631;-74
2023/08/12 06:32:28;;;;;;;5.50;4.57;;;20.50;99.90;;;;;;5086556;28;20726;-74
2023/08/12 06:34:54;;;;;;;5.50;5.00;;;20.50;99.90;;;;;;5088664;28;20618;-74
2023/08/12 06:37:21;;;;;;;5.90;5.30;;;20.60;99.90;;;;;;5089367;28;21390;-75
2023/08/12 06:39:48;;;;;;;5.60;5.20;;;20.70;99.90;;;;;;5081636;28;20633;-75
2023/08/12 06:42:15;;;;;;;5.30;4.80;;;20.70;99.90;;;;;;5088967;28;20661;-76
2023/08/12 06:44:42;;;;;;;6.33;5.73;;;20.80;99.90;;;;;;5088471;28;20634;-75
2023/08/12 06:47:08;;;;;;;5.07;4.67;;;20.80;99.90;;;;;;5088584;28;20669;-74
2023/08/12 06:49:37;;;;;;;5.47;4.97;;;20.90;99.90;;;;;;5093016;28;21053;-75
2023/08/12 06:52:04;;;;;;;6.30;5.70;;;21.10;99.90;;;;;;5090431;28;20650;-75
2023/08/12 06:54:30;;;;;;;6.20;5.27;;;21.30;99.90;;;;;;5099076;28;20722;-75
2023/08/12 06:56:57;;;;;;;5.90;5.33;;;21.50;99.90;;;;;;5098325;28;20651;-75
2023/08/12 06:59:24;;;;;;;5.20;4.80;;;21.70;99.90;;;;;;5088057;28;20631;-75
2023/08/12 07:01:51;;;;;;;6.03;5.43;;;21.70;99.90;;;;;;5100500;28;20655;-74
2023/08/12 07:04:17;;;;;;;5.93;5.43;;;21.70;99.90;;;;;;5094508;28;20635;-74
2023/08/12 07:06:46;;;;;;;5.70;5.10;;;21.80;99.90;;;;;;5091827;28;20672;-74
2023/08/12 07:09:12;;;;;;;4.53;4.13;;;21.90;99.90;;;;;;5089314;28;20814;-74
2023/08/12 07:11:39;;;;;;;6.03;5.43;;;22.10;99.90;;;;;;5089959;28;20656;-74
2023/08/12 07:14:06;;;;;;;4.93;4.43;;;22.30;99.90;;;;;;5088236;28;20832;-74
2023/08/12 07:16:34;;;;;;;5.63;5.13;;;22.30;99.90;;;;;;5095711;28;20651;-76
2023/08/12 07:19:00;;;;;;;5.90;5.40;;;22.50;99.90;;;;;;5094588;28;21205;-76
2023/08/12 07:21:27;;;;;;;5.60;5.10;;;22.60;99.90;;;;;;5097589;28;20658;-76
2023/08/12 07:23:55;;;;;;;6.67;5.23;;;22.70;99.90;;;;;;5086414;28;20966;-76
2023/08/12 07:26:22;;;;;;;5.33;4.93;;;22.80;99.90;;;;;;5086849;28;20661;-76
2023/08/12 07:28:49;;;;;;;6.87;5.07;;;22.90;99.90;;;;;;5087136;28;20662;-76
2023/08/12 07:31:16;;;;;;;5.03;4.57;;;23.00;99.90;;;;;;5089491;28;20662;-76
2023/08/12 07:33:43;;;;;;;5.83;5.13;;;23.20;99.90;;;;;;5089361;28;20664;-75
2023/08/12 07:36:09;;;;;;;5.13;4.73;;;23.20;99.90;;;;;;5088526;28;20751;-75
2023/08/12 07:38:36;;;;;;;5.17;4.77;;;23.20;99.90;;;;;;5093599;28;20745;-74
2023/08/12 07:41:04;;;;;;;6.30;4.80;;;23.40;99.90;;;;;;5087424;28;20751;-75
2023/08/12 07:43:31;;;;;;;4.90;4.50;;;23.50;99.90;;;;;;5088128;28;20769;-75
2023/08/12 07:45:58;;;;;;;6.03;4.97;;;23.60;99.90;;;;;;5087220;28;21290;-74
2023/08/12 07:48:25;;;;;;;12.23;4.33;;;23.70;98.30;;;;;;5092202;28;21045;-74
2023/08/12 07:50:57;;;;;;;5.50;4.70;;;23.80;98.80;;;;;;5087500;28;20648;-74
2023/08/12 07:53:23;;;;;;;5.37;4.87;;;23.90;99.40;;;;;;5087500;28;21240;-74
2023/08/12 07:55:51;;;;;;;5.97;5.27;;;24.00;98.60;;;;;;5090714;28;21316;-74
2023/08/12 07:58:19;;;;;;;4.60;4.20;;;24.20;98.40;;;;;;5088759;28;20627;-74
2023/08/12 08:00:45;;;;;;;4.60;4.20;;;24.10;98.10;;;;;;5092481;28;21001;-74
2023/08/12 08:03:12;;;;;;;4.77;4.37;;;24.00;97.10;;;;;;5096903;28;21165;-74
2023/08/12 08:05:41;;;;;;;5.20;4.80;;;24.00;98.10;;;;;;5088634;28;20655;-74
2023/08/12 08:08:08;;;;;;;7.73;4.70;;;24.20;97.60;;;;;;5087806;28;20721;-74
2023/08/12 08:10:34;;;;;;;5.10;3.70;;;24.40;98.30;;;;;;5087696;28;20657;-74
2023/08/12 08:13:01;;;;;;;4.30;4.00;;;24.60;95.00;;;;;;5096859;28;20626;-74
2023/08/12 08:15:29;;;;;;;4.60;4.20;;;24.70;95.20;;;;;;5094057;28;20654;-73
2023/08/12 08:17:56;;;;;;;5.03;4.60;;;24.90;95.40;;;;;;5098696;28;20622;-74
2023/08/12 08:20:23;;;;;;;4.00;3.70;;;25.10;95.30;;;;;;5087098;28;20639;-74
2023/08/12 08:22:50;;;;;;;4.10;3.80;;;25.30;94.70;;;;;;5097194;28;20635;-74
2023/08/12 08:25:16;;;;;;;4.17;3.77;;;25.40;93.20;;;;;;5093281;28;21174;-74
2023/08/12 08:27:43;;;;;;;6.63;4.13;;;25.30;93.60;;;;;;5088313;28;20670;-74
2023/08/12 08:30:11;;;;;;;4.23;3.90;;;25.40;93.10;;;;;;5087805;28;20615;-74
2023/08/12 08:32:39;;;;;;;4.70;4.30;;;25.60;93.30;;;;;;5095168;28;20725;-74
2023/08/12 08:35:07;;;;;;;5.57;3.73;;;25.80;92.60;;;;;;5082369;28;20636;-74
2023/08/12 08:37:33;;;;;;;4.53;4.23;;;26.00;92.80;;;;;;5088242;28;20611;-74
2023/08/12 08:40:00;;;;;;;4.17;3.77;;;26.20;91.90;;;;;;5084431;28;20630;-74
2023/08/12 08:42:28;;;;;;;3.63;3.33;;;26.40;91.60;;;;;;5088064;28;20666;-74
2023/08/12 08:44:57;;;;;;;3.83;3.53;;;26.50;92.30;;;;;;5088415;28;21046;-74
2023/08/12 08:47:27;;;;;;;4.30;3.90;;;26.70;92.00;;;;;;5087562;28;21131;-74
2023/08/12 08:49:56;;;;;;;3.60;3.40;;;26.70;91.70;;;;;;5083568;28;20720;-74
2023/08/12 08:52:24;;;;;;;3.40;3.10;;;26.60;91.00;;;;;;5088128;28;20648;-74
2023/08/12 08:54:51;;;;;;;3.30;3.00;;;26.80;90.70;;;;;;5087149;28;21236;-74
2023/08/12 08:57:19;;;;;;;11.73;3.47;;;26.80;89.60;;;;;;5095161;28;20644;-74
2023/08/12 08:59:45;;;;;;;4.43;4.13;;;26.80;90.70;;;;;;5082668;28;20625;-73
2023/08/12 09:02:17;;;;;;;4.10;3.80;;;27.00;90.40;;;;;;5086737;28;20653;-74
2023/08/12 09:04:44;;;;;;;4.20;3.80;;;27.20;88.30;;;;;;5086639;28;20632;-74
2023/08/12 09:07:13;;;;;;;3.93;3.63;;;27.20;90.10;;;;;;5088563;28;20661;-72
2023/08/12 09:09:42;;;;;;;3.63;3.37;;;27.20;88.40;;;;;;5085491;28;20630;-69
2023/08/12 09:12:10;;;;;;;3.30;3.00;;;27.50;87.90;;;;;;5092022;28;20747;-70
2023/08/12 09:14:37;;;;;;;4.40;4.00;;;27.60;86.70;;;;;;5098549;28;20620;-75
2023/08/12 09:17:04;;;;;;;3.90;3.47;;;27.70;87.40;;;;;;5095477;28;20647;-73
2023/08/12 09:19:31;;;;;;;3.93;3.50;;;27.90;86.00;;;;;;5091251;28;21347;-74
2023/08/12 09:21:58;;;;;;;5.33;3.70;;;28.10;85.60;;;;;;5089867;28;20649;-74
2023/08/12 09:24:27;;;;;;;3.07;2.77;;;28.20;85.10;;;;;;5089003;28;20631;-75
2023/08/12 09:26:55;;;;;;;4.83;2.97;;;28.20;81.50;;;;;;5084995;28;20767;-75
2023/08/12 09:29:24;;;;;;;3.40;3.20;;;28.40;82.50;;;;;;5087857;28;20634;-75
2023/08/12 09:31:51;;;;;;;2.87;2.67;;;28.60;80.50;;;;;;5082031;28;20656;-75
2023/08/12 09:34:19;;;;;;;2.20;2.10;;;28.80;80.10;;;;;;5094480;28;20638;-75
2023/08/12 09:36:47;;;;;;;5.10;2.93;;;28.90;79.20;;;;;;5090158;28;20650;-75
2023/08/12 09:39:14;;;;;;;2.77;2.57;;;28.90;78.80;;;;;;5087120;28;20624;-75
2023/08/12 09:41:44;;;;;;;2.60;2.40;;;28.90;77.40;;;;;;5093622;28;20660;-75
2023/08/12 09:44:11;;;;;;;2.73;2.53;;;29.10;76.00;;;;;;5090460;28;20625;-75
2023/08/12 09:46:39;;;;;;;2.87;2.67;;;29.30;76.70;;;;;;5088859;28;20662;-75
2023/08/12 09:49:07;;;;;;;3.00;2.80;;;29.60;76.00;;;;;;5087565;28;20647;-75
2023/08/12 09:51:36;;;;;;;2.70;2.50;;;29.60;76.40;;;;;;5082830;28;20652;-77
2023/08/12 09:54:03;;;;;;;2.90;2.70;;;29.50;73.40;;;;;;5090290;28;20719;-77
2023/08/12 09:56:36;;;;;;;3.40;2.92;;;29.20;74.50;;;;;;5092949;28;21272;-77
2023/08/12 09:59:07;;;;;;;2.73;2.43;;;29.00;75.80;;;;;;5089101;28;20209;-77
2023/08/12 10:01:41;;;;;;;2.53;2.37;;;28.80;77.80;;;;;;5089255;28;21284;-77
2023/08/12 10:04:13;;;;;;;2.77;2.57;;;28.60;77.70;;;;;;5086350;28;20628;-77
2023/08/12 10:06:41;;;;;;;2.90;2.70;;;28.50;79.10;;;;;;5091147;28;21213;-77
2023/08/12 10:09:08;;;;;;;2.93;2.63;;;28.30;83.10;;;;;;5084969;28;20723;-77
2023/08/12 10:11:36;;;;;;;3.00;2.57;;;28.30;83.10;;;;;;5089324;28;20752;-77
2023/08/12 10:14:05;;;;;;;2.73;2.53;;;28.00;86.10;;;;;;5095249;28;20714;-77
2023/08/12 10:16:33;;;;;;;3.47;3.27;;;27.90;83.90;;;;;;5092294;28;20676;-77
2023/08/12 10:19:01;;;;;;;3.60;3.10;;;28.00;82.70;;;;;;5095843;28;20861;-77
2023/08/12 10:21:28;;;;;;;3.37;3.07;;;28.10;83.40;;;;;;5096396;28;20658;-77
2023/08/12 10:23:57;;;;;;;2.80;2.60;;;28.20;81.80;;;;;;5098619;28;20624;-78
2023/08/12 10:26:25;;;;;;;2.97;2.77;;;28.20;82.20;;;;;;5088748;28;20739;-78
2023/08/12 10:28:52;;;;;;;3.70;3.40;;;28.20;79.30;;;;;;5092938;28;20628;-78
2023/08/12 10:31:21;;;;;;;3.80;3.30;;;28.30;80.10;;;;;;5085734;28;20751;-78
2023/08/12 10:33:49;;;;;;;7.93;3.80;;;28.40;80.20;;;;;;5101177;28;20627;-78
2023/08/12 10:36:18;;;;;;;3.70;3.40;;;28.50;81.70;;;;;;5092853;28;20645;-78
2023/08/12 10:38:45;;;;;;;3.53;3.23;;;28.50;80.60;;;;;;5084346;28;21153;-79
2023/08/12 10:41:17;;;;;;;4.00;3.70;;;28.50;80.00;;;;;;5082549;28;20650;-76
2023/08/12 10:43:55;;;;;;;3.43;3.13;;;28.70;84.10;;;;;;5084316;28;20624;-78
2023/08/12 10:46:34;;;;;;;3.00;2.70;;;28.50;80.60;;;;;;5085706;28;20640;-77
2023/08/12 10:49:05;;;;;;;4.10;3.70;;;28.50;79.30;;;;;;5088068;28;20723;-76
2023/08/12 10:51:44;;;;;;;3.60;3.40;;;28.50;80.30;;;;;;5089539;28;21270;-75
2023/08/12 10:54:15;;;;;;;3.37;3.17;;;28.70;79.90;;;;;;5089116;28;20625;-75
2023/08/12 10:57:10;;;;;;;4.10;3.70;;;28.80;79.80;;;;;;5087096;28;20640;-75
2023/08/12 10:59:51;;;;;;;3.20;3.00;;;28.90;77.50;;;;;;5096178;28;20632;-75
2023/08/12 11:02:21;;;;;;;3.00;2.70;;;29.10;80.40;;;;;;5084485;28;20731;-75
2023/08/12 11:04:50;;;;;;;3.57;3.20;;;29.30;77.80;;;;;;5084812;28;21074;-75
2023/08/12 11:07:19;;;;;;;4.20;3.17;;;29.50;80.70;;;;;;5087142;28;20660;-76
2023/08/12 11:09:47;;;;;;;3.53;3.33;;;29.80;78.50;;;;;;5091473;28;20716;-76
2023/08/12 11:12:18;;;;;;;4.17;3.77;;;29.70;75.50;;;;;;5091075;28;20636;-76
2023/08/12 11:14:49;;;;;;;3.97;3.53;;;29.60;75.00;;;;;;5089568;28;20624;-76
2023/08/12 11:17:16;;;;;;;3.67;3.37;;;29.50;76.90;;;;;;5090360;28;20649;-76
2023/08/12 11:19:44;;;;;;;3.87;3.57;;;29.60;78.00;;;;;;5088081;28;20653;-76
2023/08/12 11:22:12;;;;;;;2.80;2.60;;;30.10;77.80;;;;;;5088833;28;20656;-76
2023/08/12 11:24:41;;;;;;;5.33;3.03;;;30.70;75.00;;;;;;5086891;28;20612;-75
2023/08/12 11:27:11;;;;;;;3.40;3.10;;;31.00;73.00;;;;;;5088410;28;20656;-76
2023/08/12 11:29:39;;;;;;;2.90;2.70;;;31.10;72.90;;;;;;5089730;28;20655;-82
2023/08/12 11:32:07;;;;;;;3.30;3.10;;;31.30;70.90;;;;;;5094047;28;20648;-80
2023/08/12 11:34:34;;;;;;;3.20;2.90;;;31.30;71.50;;;;;;5094289;28;20707;-80
2023/08/12 11:37:03;;;;;;;3.77;3.47;;;31.50;70.80;;;;;;5096048;28;20655;-79
2023/08/12 11:39:30;;;;;;;4.00;3.70;;;31.10;71.60;;;;;;5081721;28;20669;-81
2023/08/12 11:41:58;;;;;;;3.50;3.30;;;31.40;71.00;;;;;;5088602;28;20958;-80
2023/08/12 11:44:25;;;;;;;3.00;2.80;;;31.70;71.70;;;;;;5089369;28;20612;-79
2023/08/12 11:46:52;;;;;;;3.43;3.13;;;32.40;70.00;;;;;;5089027;28;20652;-82
2023/08/12 11:49:19;;;;;;;2.77;2.57;;;32.70;67.90;;;;;;5095868;28;20624;-81
2023/08/12 11:51:49;;;;;;;3.03;2.83;;;32.80;66.50;;;;;;5088605;28;21231;-80
2023/08/12 11:54:18;;;;;;;3.53;3.23;;;33.30;65.90;;;;;;5096765;28;20823;-75
2023/08/12 11:56:45;;;;;;;3.07;2.87;;;33.80;64.80;;;;;;5088333;28;21269;-78
2023/08/12 11:59:12;;;;;;;3.07;2.80;;;34.10;62.60;;;;;;5094782;28;20636;-78
2023/08/12 12:01:38;;;;;;;2.90;2.70;;;34.20;61.70;;;;;;5091514;28;20788;-78
2023/08/12 12:04:05;;;;;;;2.60;2.03;;;34.50;59.90;;;;;;5091029;28;20648;-78
2023/08/12 12:06:34;;;;;;;2.47;2.27;;;34.40;59.10;;;;;;5087919;28;20644;-79
2023/08/12 12:09:04;;;;;;;2.63;2.43;;;33.90;59.00;;;;;;5080711;28;20682;-79
2023/08/12 12:11:33;;;;;;;2.70;2.50;;;33.10;60.00;;;;;;5093178;28;20647;-80
2023/08/12 12:14:03;;;;;;;3.07;2.77;;;32.20;60.60;;;;;;5097364;28;20819;-80
2023/08/12 12:16:40;;;;;;;3.20;2.67;;;31.30;63.20;;;;;;5096915;28;20640;-79
2023/08/12 12:19:09;;;;;;;3.07;2.87;;;30.60;66.40;;;;;;5090631;28;21028;-74
2023/08/12 12:21:41;;;;;;;4.40;4.00;;;30.00;70.10;;;;;;5100402;28;20724;-74
2023/08/12 12:24:08;;;;;;;6.00;4.00;;;29.00;81.50;;;;;;5097482;28;20615;-73
2023/08/12 12:26:37;;;;;;;4.10;3.80;;;28.30;87.40;;;;;;5088255;28;20656;-73
2023/08/12 12:29:05;;;;;;;4.03;3.73;;;27.70;90.30;;;;;;5087789;28;20759;-75
2023/08/12 12:31:33;;;;;;;3.63;3.33;;;27.00;91.20;;;;;;5086120;28;21067;-71
2023/08/12 12:34:00;;;;;;;4.43;4.03;;;26.60;92.80;;;;;;5094201;28;20979;-74
2023/08/12 12:36:27;;;;;;;4.40;4.00;;;26.00;94.20;;;;;;5086972;28;20657;-74
2023/08/12 12:38:53;;;;;;;3.70;3.40;;;25.70;95.00;;;;;;5083504;28;20804;-75
2023/08/12 12:41:20;;;;;;;4.23;3.83;;;25.60;96.30;;;;;;5090113;28;20688;-74
2023/08/12 12:43:48;;;;;;;4.37;3.97;;;25.40;96.70;;;;;;5088367;28;20629;-74
2023/08/12 12:46:16;;;;;;;4.40;4.00;;;25.10;98.50;;;;;;5088862;28;20647;-75
2023/08/12 12:48:43;;;;;;;4.13;3.60;;;25.00;99.80;;;;;;5086553;28;20657;-74